Terminal Aerodrome Forecast
Issued by NWS

Home | Current Version | Previous Version | Text Only | Print | Product List | Glossary On
Versions: 1 2 3 4 5 6 7 8 9 10 11 12 13 14
000
FTAK31 PAJN 060916 AAA
TAFAGY
TAF AMD
PAGY 060916Z 0609/0706 21020G31KT P6SM VCSH OVC050
     FM061100 21022G31KT P6SM -RA OVC080
     FM062100 21025G38KT P6SM -RA BKN040 OVC080
     FM070300 21019G30KT P6SM VCSH SCT015 OVC050
     FM070500 21015G25KT P6SM VCSH OVC080
      AMD LTD TO CLD VIS AND WIND=

USA.gov is the U.S. government's official web portal to all federal, state and local government web resources and services.